Back to Top

Language: 

My Weather Underground Personal Weather Station Historical Data with Graphs...

Delerius Weather Station Historical Data
Daily Summary for August 6, 2017 Units:  English    Metric   Both
« Previous Day
Next Day »
Daily Weekly Monthly Yearly Custom
  High: Low: Average:
Temperature: 67.8 °F 51.6 °F 59.2 °F
Dew Point: 56.5 °F 47.9 °F 51.8 °F
Humidity: 95 % 54 % 78 %
Wind Speed: 18.0 mph 0.0 mph 7.3 mph
Wind Gust: 30.0 mph - -
Wind:- - WSW
Pressure: 30.11 in 29.99 in -
Precipitation: 0.13 in    
Historical Graphs
 
 
Tabular Data for August 6, 2017
Time Temperature Dew Point Pressure Wind Wind Speed Wind Gust Humidity Rainfall Rate (Hourly) solar Conditions
00:03 52.3 °F 48.3 °F 30.10 in Calm     86 % 0.00 in 0 W/m2
00:08 52.2 °F 48.1 °F 30.10 in Calm   3.0 mph 86 % 0.00 in 0 W/m2
00:13 52.0 °F 47.9 °F 30.09 in Calm   4.0 mph 86 % 0.00 in 0 W/m2
00:18 52.0 °F 48.2 °F 30.09 in Calm   4.0 mph 87 % 0.00 in 0 W/m2
00:23 51.6 °F 47.9 °F 30.09 in WNW 1.0 mph 5.0 mph 87 % 0.00 in 0 W/m2
00:28 51.8 °F 48.4 °F 30.09 in WNW 3.0 mph 7.0 mph 88 % 0.00 in 0 W/m2
00:33 52.0 °F 48.8 °F 30.09 in WNW 4.0 mph 7.0 mph 89 % 0.00 in 0 W/m2
00:38 52.0 °F 48.8 °F 30.09 in WNW 5.0 mph 7.0 mph 89 % 0.00 in 0 W/m2
00:43 52.2 °F 49.0 °F 30.09 in WNW 5.0 mph 9.0 mph 89 % 0.00 in 0 W/m2
00:48 52.5 °F 49.4 °F 30.09 in WNW 6.0 mph 10.0 mph 89 % 0.00 in 0 W/m2
00:53 52.5 °F 49.4 °F 30.09 in WNW 5.0 mph 10.0 mph 89 % 0.00 in 0 W/m2
01:03 52.5 °F 49.1 °F 30.09 in NW 3.0 mph 7.0 mph 88 % 0.00 in 0 W/m2
01:08 52.5 °F 49.1 °F 30.09 in NW 3.0 mph 7.0 mph 88 % 0.00 in 0 W/m2
01:13 52.5 °F 49.1 °F 30.10 in NW 4.0 mph 7.0 mph 88 % 0.00 in 0 W/m2
01:18 52.5 °F 49.4 °F 30.09 in NW 4.0 mph 7.0 mph 89 % 0.00 in 0 W/m2
01:23 52.5 °F 49.4 °F 30.10 in NW 4.0 mph 8.0 mph 89 % 0.00 in 0 W/m2
01:28 52.5 °F 49.4 °F 30.10 in NW 5.0 mph 8.0 mph 89 % 0.00 in 0 W/m2
01:33 52.7 °F 49.5 °F 30.10 in NW 5.0 mph 8.0 mph 89 % 0.00 in 0 W/m2
01:38 52.7 °F 49.5 °F 30.10 in NW 6.0 mph 9.0 mph 89 % 0.00 in 0 W/m2
01:43 52.7 °F 49.5 °F 30.10 in NW 6.0 mph 9.0 mph 89 % 0.00 in 0 W/m2
01:48 52.9 °F 49.7 °F 30.10 in NW 6.0 mph 9.0 mph 89 % 0.00 in 0 W/m2
01:53 52.9 °F 49.7 °F 30.10 in NW 6.0 mph 9.0 mph 89 % 0.00 in 0 W/m2
01:58 52.9 °F 49.7 °F 30.10 in NW 6.0 mph 9.0 mph 89 % 0.00 in 0 W/m2
02:03 52.9 °F 49.7 °F 30.10 in NW 5.0 mph 9.0 mph 89 % 0.00 in 0 W/m2
02:08 52.9 °F 49.7 °F 30.09 in NW 6.0 mph 9.0 mph 89 % 0.00 in 0 W/m2
02:13 52.9 °F 49.4 °F 30.09 in NW 6.0 mph 10.0 mph 88 % 0.00 in 0 W/m2
02:18 53.1 °F 49.6 °F 30.09 in NW 5.0 mph 10.0 mph 88 % 0.00 in 0 W/m2
02:23 53.1 °F 49.6 °F 30.10 in NW 5.0 mph 9.0 mph 88 % 0.00 in 0 W/m2
02:28 53.1 °F 49.6 °F 30.09 in WNW 5.0 mph 8.0 mph 88 % 0.00 in 0 W/m2
02:33 53.1 °F 49.6 °F 30.09 in WNW 3.0 mph 8.0 mph 88 % 0.00 in 0 W/m2
02:35 53.1 °F 49.6 °F 30.09 in WNW 2.0 mph 8.0 mph 88 % 0.00 in 0 W/m2
02:40 52.9 °F 49.4 °F 30.09 in WNW 2.0 mph 7.0 mph 88 % 0.00 in 0 W/m2
02:45 53.1 °F 49.9 °F 30.09 in WNW 4.0 mph 7.0 mph 89 % 0.00 in 0 W/m2
02:50 53.1 °F 49.9 °F 30.09 in WNW 3.0 mph 7.0 mph 89 % 0.00 in 0 W/m2
02:55 53.1 °F 49.6 °F 30.09 in West 1.0 mph 5.0 mph 88 % 0.00 in 0 W/m2
03:00 53.1 °F 49.6 °F 30.09 in NW 1.0 mph 7.0 mph 88 % 0.00 in 0 W/m2
03:05 53.1 °F 49.9 °F 30.09 in WNW 2.0 mph 7.0 mph 89 % 0.00 in 0 W/m2
03:10 53.2 °F 50.1 °F 30.09 in WNW 1.0 mph 5.0 mph 89 % 0.00 in 0 W/m2
03:15 53.1 °F 49.6 °F 30.09 in Calm   4.0 mph 88 % 0.00 in 0 W/m2
03:20 53.1 °F 49.9 °F 30.10 in WNW 1.0 mph 4.0 mph 89 % 0.00 in 0 W/m2
03:25 53.1 °F 49.6 °F 30.10 in Calm   2.0 mph 88 % 0.00 in 0 W/m2
03:30 53.1 °F 49.6 °F 30.10 in Calm   5.0 mph 88 % 0.00 in 0 W/m2
03:35 53.1 °F 49.9 °F 30.10 in WNW 2.0 mph 5.0 mph 89 % 0.00 in 0 W/m2
03:40 53.1 °F 49.9 °F 30.10 in WNW 2.0 mph 5.0 mph 89 % 0.00 in 0 W/m2
03:45 53.1 °F 49.9 °F 30.10 in WNW 2.0 mph 7.0 mph 89 % 0.00 in 0 W/m2
03:50 53.1 °F 49.9 °F 30.10 in NW 3.0 mph 7.0 mph 89 % 0.00 in 0 W/m2
03:55 53.1 °F 49.6 °F 30.10 in NW 4.0 mph 8.0 mph 88 % 0.00 in 0 W/m2
04:00 53.2 °F 50.1 °F 30.10 in WNW 5.0 mph 8.0 mph 89 % 0.00 in 0 W/m2
04:05 53.2 °F 49.8 °F 30.09 in WNW 5.0 mph 8.0 mph 88 % 0.00 in 0 W/m2
04:10 53.2 °F 49.8 °F 30.09 in WNW 5.0 mph 8.0 mph 88 % 0.00 in 0 W/m2
04:15 53.2 °F 49.8 °F 30.09 in WNW 5.0 mph 8.0 mph 88 % 0.00 in 0 W/m2
04:20 53.4 °F 50.0 °F 30.09 in WNW 5.0 mph 9.0 mph 88 % 0.00 in 0 W/m2
04:25 53.4 °F 49.6 °F 30.09 in WNW 5.0 mph 9.0 mph 87 % 0.00 in 0 W/m2
04:30 53.6 °F 49.8 °F 30.09 in WNW 5.0 mph 8.0 mph 87 % 0.00 in 0 W/m2
04:35 53.6 °F 49.8 °F 30.09 in WNW 3.0 mph 7.0 mph 87 % 0.00 in 0 W/m2
04:40 53.6 °F 49.8 °F 30.09 in WNW 1.0 mph 6.0 mph 87 % 0.00 in 0 W/m2
04:45 53.4 °F 49.6 °F 30.09 in Calm   2.0 mph 87 % 0.00 in 0 W/m2
04:50 53.4 °F 49.6 °F 30.09 in WNW 1.0 mph 5.0 mph 87 % 0.00 in 0 W/m2
04:55 53.2 °F 49.5 °F 30.09 in WNW 1.0 mph 5.0 mph 87 % 0.00 in 0 W/m2
05:00 53.2 °F 49.5 °F 30.09 in Calm   4.0 mph 87 % 0.00 in 0 W/m2
05:05 53.2 °F 49.5 °F 30.09 in Calm     87 % 0.00 in 0 W/m2
05:11 53.1 °F 49.3 °F 30.09 in WNW 1.0 mph 5.0 mph 87 % 0.00 in 0 W/m2
05:16 53.1 °F 49.6 °F 30.09 in West 2.0 mph 7.0 mph 88 % 0.00 in 0 W/m2
05:20 53.1 °F 49.6 °F 30.09 in West 3.0 mph 7.0 mph 88 % 0.00 in 0 W/m2
05:25 53.1 °F 49.6 °F 30.09 in West 3.0 mph 7.0 mph 88 % 0.00 in 7 W/m2
05:30 53.1 °F 49.3 °F 30.09 in WNW 3.0 mph 7.0 mph 87 % 0.00 in 9 W/m2
05:36 52.9 °F 49.1 °F 30.09 in WNW 3.0 mph 5.0 mph 87 % 0.00 in 11 W/m2
05:41 52.7 °F 48.9 °F 30.09 in WNW 3.0 mph 6.0 mph 87 % 0.00 in 12 W/m2
05:46 52.5 °F 49.1 °F 30.09 in WNW 3.0 mph 6.0 mph 88 % 0.00 in 14 W/m2
05:51 52.5 °F 49.1 °F 30.09 in WNW 4.0 mph 11.0 mph 88 % 0.00 in 14 W/m2
05:56 52.7 °F 49.2 °F 30.09 in WNW 7.0 mph 11.0 mph 88 % 0.00 in 18 W/m2
06:01 52.9 °F 49.4 °F 30.09 in WNW 8.0 mph 12.0 mph 88 % 0.00 in 25 W/m2
06:06 53.1 °F 49.3 °F 30.09 in WNW 7.0 mph 12.0 mph 87 % 0.00 in 32 W/m2
06:11 53.1 °F 49.3 °F 30.09 in West 5.0 mph 9.0 mph 87 % 0.00 in 39 W/m2
06:21 53.2 °F 49.5 °F 30.09 in WNW 6.0 mph 11.0 mph 87 % 0.00 in 56 W/m2
06:26 53.4 °F 49.6 °F 30.09 in WNW 6.0 mph 11.0 mph 87 % 0.00 in 70 W/m2
06:36 53.8 °F 50.0 °F 30.09 in West 4.0 mph 8.0 mph 87 % 0.00 in 60 W/m2
06:41 54.0 °F 50.2 °F 30.10 in WNW 5.0 mph 8.0 mph 87 % 0.00 in 98 W/m2
06:46 54.1 °F 50.0 °F 30.09 in WNW 6.0 mph 10.0 mph 86 % 0.00 in 102 W/m2
06:51 54.5 °F 50.4 °F 30.10 in WNW 6.0 mph 12.0 mph 86 % 0.00 in 83 W/m2
06:56 54.7 °F 50.6 °F 30.10 in WNW 6.0 mph 12.0 mph 86 % 0.00 in 90 W/m2
07:01 54.9 °F 50.4 °F 30.10 in WNW 5.0 mph 9.0 mph 85 % 0.00 in 114 W/m2
07:06 55.2 °F 50.8 °F 30.10 in WNW 5.0 mph 9.0 mph 85 % 0.00 in 155 W/m2
07:11 55.8 °F 51.3 °F 30.10 in WNW 6.0 mph 9.0 mph 85 % 0.00 in 132 W/m2
07:16 55.9 °F 51.2 °F 30.10 in WNW 6.0 mph 9.0 mph 84 % 0.00 in 93 W/m2
07:21 56.3 °F 51.2 °F 30.10 in WNW 5.0 mph 9.0 mph 83 % 0.00 in 98 W/m2
07:26 56.5 °F 51.4 °F 30.10 in WNW 3.0 mph 7.0 mph 83 % 0.00 in 109 W/m2
07:31 56.7 °F 51.6 °F 30.11 in West 3.0 mph 7.0 mph 83 % 0.00 in 139 W/m2
07:36 56.8 °F 51.7 °F 30.11 in West 4.0 mph 8.0 mph 83 % 0.00 in 169 W/m2
07:41 57.0 °F 51.6 °F 30.11 in West 5.0 mph 9.0 mph 82 % 0.00 in 207 W/m2
07:46 57.4 °F 51.9 °F 30.11 in West 3.0 mph 9.0 mph 82 % 0.00 in 202 W/m2
07:52 57.7 °F 52.3 °F 30.11 in West 1.0 mph 5.0 mph 82 % 0.00 in 195 W/m2
07:57 58.3 °F 52.1 °F 30.11 in West 1.0 mph 6.0 mph 80 % 0.00 in 169 W/m2
08:02 58.5 °F 52.0 °F 30.11 in WSW 2.0 mph 6.0 mph 79 % 0.00 in 241 W/m2
08:07 58.8 °F 52.0 °F 30.11 in WSW 3.0 mph 7.0 mph 78 % 0.00 in 199 W/m2
08:12 59.4 °F 51.8 °F 30.11 in WSW 5.0 mph 10.0 mph 76 % 0.00 in 193 W/m2
08:17 59.5 °F 52.0 °F 30.11 in WSW 5.0 mph 10.0 mph 76 % 0.00 in 380 W/m2
08:22 60.3 °F 52.7 °F 30.11 in WSW 5.0 mph 8.0 mph 76 % 0.00 in 302 W/m2
08:27 60.6 °F 52.3 °F 30.11 in WSW 5.0 mph 8.0 mph 74 % 0.00 in 480 W/m2
08:32 61.0 °F 51.5 °F 30.11 in WSW 6.0 mph 11.0 mph 71 % 0.00 in 353 W/m2
08:37 61.2 °F 50.9 °F 30.11 in WSW 8.0 mph 13.0 mph 69 % 0.00 in 297 W/m2
08:42 61.3 °F 51.1 °F 30.11 in WSW 8.0 mph 13.0 mph 69 % 0.00 in 257 W/m2
08:47 61.3 °F 49.9 °F 30.11 in WSW 8.0 mph 13.0 mph 66 % 0.00 in 424 W/m2
08:52 61.5 °F 50.1 °F 30.11 in SW 9.0 mph 13.0 mph 66 % 0.00 in 390 W/m2
08:57 61.9 °F 50.8 °F 30.11 in SW 8.0 mph 13.0 mph 67 % 0.00 in 283 W/m2
09:02 62.1 °F 51.0 °F 30.11 in WSW 7.0 mph 12.0 mph 67 % 0.00 in 424 W/m2
09:07 62.4 °F 50.5 °F 30.11 in WSW 8.0 mph 13.0 mph 65 % 0.00 in 322 W/m2
09:12 62.4 °F 50.5 °F 30.11 in SW 8.0 mph 13.0 mph 65 % 0.00 in 436 W/m2
09:17 62.4 °F 50.5 °F 30.11 in SW 8.0 mph 12.0 mph 65 % 0.00 in 504 W/m2
09:22 62.4 °F 50.1 °F 30.11 in SW 8.0 mph 12.0 mph 64 % 0.00 in 385 W/m2
09:27 62.4 °F 50.1 °F 30.11 in SW 8.0 mph 12.0 mph 64 % 0.00 in 554 W/m2
09:37 63.0 °F 50.2 °F 30.11 in SW 8.0 mph 13.0 mph 63 % 0.00 in 396 W/m2
09:42 62.8 °F 49.6 °F 30.11 in SW 9.0 mph 16.0 mph 62 % 0.00 in 366 W/m2
09:47 62.6 °F 49.8 °F 30.11 in SSW 9.0 mph 16.0 mph 63 % 0.00 in 341 W/m2
09:52 62.8 °F 50.0 °F 30.11 in SW 8.0 mph 14.0 mph 63 % 0.00 in 330 W/m2
09:57 62.8 °F 50.0 °F 30.11 in SW 7.0 mph 11.0 mph 63 % 0.00 in 299 W/m2
10:02 62.8 °F 50.0 °F 30.11 in WSW 7.0 mph 11.0 mph 63 % 0.00 in 320 W/m2
10:07 62.8 °F 49.6 °F 30.11 in WSW 8.0 mph 12.0 mph 62 % 0.00 in 329 W/m2
10:12 62.8 °F 49.6 °F 30.11 in WSW 8.0 mph 12.0 mph 62 % 0.00 in 302 W/m2
10:17 62.8 °F 50.0 °F 30.11 in WSW 8.0 mph 12.0 mph 63 % 0.00 in 322 W/m2
10:22 62.8 °F 50.8 °F 30.11 in WSW 7.0 mph 13.0 mph 65 % 0.00 in 325 W/m2
10:27 62.6 °F 50.7 °F 30.11 in SW 7.0 mph 13.0 mph 65 % 0.00 in 290 W/m2
10:32 62.4 °F 50.5 °F 30.11 in SW 8.0 mph 13.0 mph 65 % 0.00 in 288 W/m2
10:37 62.4 °F 50.9 °F 30.11 in SW 8.0 mph 13.0 mph 66 % 0.00 in 285 W/m2
10:42 62.4 °F 50.9 °F 30.11 in WSW 8.0 mph 13.0 mph 66 % 0.00 in 320 W/m2
10:43 62.4 °F 50.9 °F 30.11 in WSW 8.0 mph 13.0 mph 66 % 0.00 in 320 W/m2
10:48 62.4 °F 50.9 °F 30.11 in SW 8.0 mph 19.0 mph 66 % 0.00 in 362 W/m2
10:53 62.4 °F 50.9 °F 30.11 in SW 9.0 mph 19.0 mph 66 % 0.00 in 362 W/m2
10:58 62.6 °F 51.5 °F 30.11 in SW 9.0 mph 15.0 mph 67 % 0.00 in 373 W/m2
11:03 62.8 °F 51.7 °F 30.11 in SW 9.0 mph 14.0 mph 67 % 0.00 in 496 W/m2
11:08 63.3 °F 52.2 °F 30.11 in SW 8.0 mph 13.0 mph 67 % 0.00 in 547 W/m2
11:13 63.3 °F 51.3 °F 30.11 in SW 8.0 mph 13.0 mph 65 % 0.00 in 295 W/m2
11:18 63.3 °F 51.8 °F 30.11 in WSW 7.0 mph 13.0 mph 66 % 0.00 in 318 W/m2
11:29 62.8 °F 51.2 °F 30.11 in SSW 10.0 mph 19.0 mph 66 % 0.00 in 264 W/m2
11:34 63.0 °F 51.8 °F 30.11 in SW 9.0 mph 14.0 mph 67 % 0.00 in 559 W/m2
11:39 63.0 °F 51.4 °F 30.11 in SW 9.0 mph 13.0 mph 66 % 0.00 in 274 W/m2
11:44 63.0 °F 51.4 °F 30.11 in SW 9.0 mph 14.0 mph 66 % 0.00 in 355 W/m2
11:49 63.1 °F 51.6 °F 30.11 in SW 9.0 mph 14.0 mph 66 % 0.00 in 469 W/m2
11:54 63.3 °F 51.3 °F 30.11 in SW 8.0 mph 13.0 mph 65 % 0.00 in 429 W/m2
11:59 63.7 °F 51.7 °F 30.10 in SW 9.0 mph 15.0 mph 65 % 0.00 in 357 W/m2
12:04 64.0 °F 51.2 °F 30.10 in WSW 9.0 mph 15.0 mph 63 % 0.00 in 264 W/m2
12:09 63.9 °F 51.0 °F 30.10 in WSW 8.0 mph 14.0 mph 63 % 0.00 in 250 W/m2
12:14 63.9 °F 51.4 °F 30.10 in WSW 8.0 mph 14.0 mph 64 % 0.00 in 441 W/m2
12:19 64.0 °F 51.2 °F 30.10 in WSW 8.0 mph 14.0 mph 63 % 0.00 in 515 W/m2
12:24 64.6 °F 52.1 °F 30.09 in WSW 8.0 mph 14.0 mph 64 % 0.00 in 520 W/m2
12:29 65.1 °F 51.8 °F 30.09 in WSW 8.0 mph 15.0 mph 62 % 0.00 in 728 W/m2
12:34 65.7 °F 51.4 °F 30.10 in SW 9.0 mph 19.0 mph 60 % 0.00 in 650 W/m2
12:39 65.8 °F 51.6 °F 30.09 in SW 8.0 mph 19.0 mph 60 % 0.00 in 849 W/m2
12:44 66.0 °F 49.9 °F 30.09 in SW 10.0 mph 21.0 mph 56 % 0.00 in 322 W/m2
12:49 66.0 °F 50.8 °F 30.09 in SW 11.0 mph 21.0 mph 58 % 0.00 in 874 W/m2
12:54 66.6 °F 51.3 °F 30.09 in SW 10.0 mph 18.0 mph 58 % 0.00 in 979 W/m2
12:59 66.9 °F 51.7 °F 30.08 in SW 10.0 mph 19.0 mph 58 % 0.00 in 923 W/m2
13:04 67.5 °F 52.2 °F 30.08 in SW 10.0 mph 19.0 mph 58 % 0.00 in 728 W/m2
13:09 67.6 °F 51.4 °F 30.08 in WSW 10.0 mph 18.0 mph 56 % 0.00 in 728 W/m2
13:14 67.8 °F 51.1 °F 30.08 in WSW 10.0 mph 18.0 mph 55 % 0.00 in 751 W/m2
13:19 67.3 °F 50.6 °F 30.08 in SW 11.0 mph 20.0 mph 55 % 0.00 in 701 W/m2
13:24 67.1 °F 50.9 °F 30.08 in SW 10.0 mph 20.0 mph 56 % 0.00 in 369 W/m2
13:29 66.7 °F 50.5 °F 30.08 in SSW 9.0 mph 16.0 mph 56 % 0.00 in 294 W/m2
13:34 66.2 °F 50.5 °F 30.08 in SSW 10.0 mph 19.0 mph 57 % 0.00 in 251 W/m2
13:39 65.8 °F 49.7 °F 30.08 in SW 12.0 mph 23.0 mph 56 % 0.00 in 364 W/m2
13:44 65.8 °F 50.2 °F 30.07 in SW 12.0 mph 23.0 mph 57 % 0.00 in 388 W/m2
13:45 65.8 °F 50.2 °F 30.07 in SW 12.0 mph 23.0 mph 57 % 0.00 in 388 W/m2
13:50 66.2 °F 50.0 °F 30.07 in SW 11.0 mph 20.0 mph 56 % 0.00 in 420 W/m2
13:55 66.9 °F 50.7 °F 30.07 in SW 12.0 mph 22.0 mph 56 % 0.00 in 854 W/m2
14:00 67.3 °F 51.0 °F 30.07 in SW 11.0 mph 22.0 mph 56 % 0.00 in 403 W/m2
14:10 67.3 °F 50.6 °F 30.07 in SW 12.0 mph 22.0 mph 55 % 0.00 in 410 W/m2
14:15 66.7 °F 49.6 °F 30.07 in SW 13.0 mph 22.0 mph 54 % 0.00 in 299 W/m2
14:20 66.9 °F 50.7 °F 30.07 in WSW 12.0 mph 20.0 mph 56 % 0.00 in 427 W/m2
14:25 67.1 °F 50.4 °F 30.06 in SW 11.0 mph 24.0 mph 55 % 0.00 in 912 W/m2
14:30 67.3 °F 51.0 °F 30.07 in SW 12.0 mph 24.0 mph 56 % 0.00 in 656 W/m2
14:35 67.5 °F 50.7 °F 30.07 in WSW 11.0 mph 24.0 mph 55 % 0.00 in 656 W/m2
14:40 67.5 °F 50.2 °F 30.07 in WSW 12.0 mph 20.0 mph 54 % 0.00 in 359 W/m2
14:45 66.9 °F 49.7 °F 30.07 in SW 14.0 mph 25.0 mph 54 % 0.00 in 457 W/m2
14:50 66.7 °F 50.1 °F 30.06 in SW 15.0 mph 26.0 mph 55 % 0.00 in 383 W/m2
14:55 66.7 °F 49.6 °F 30.06 in SW 13.0 mph 26.0 mph 54 % 0.00 in 438 W/m2
15:00 66.7 °F 50.1 °F 30.06 in SW 13.0 mph 21.0 mph 55 % 0.00 in 464 W/m2
15:06 66.9 °F 50.2 °F 30.06 in WSW 13.0 mph 21.0 mph 55 % 0.00 in 313 W/m2
15:11 66.7 °F 50.1 °F 30.06 in SW 12.0 mph 21.0 mph 55 % 0.00 in 278 W/m2
15:16 66.7 °F 50.5 °F 30.06 in SW 11.0 mph 21.0 mph 56 % 0.00 in 146 W/m2
15:21 66.4 °F 50.2 °F 30.06 in WSW 10.0 mph 18.0 mph 56 % 0.00 in 111 W/m2
15:26 66.0 °F 50.3 °F 30.06 in WSW 10.0 mph 18.0 mph 57 % 0.00 in 118 W/m2
15:31 65.7 °F 50.9 °F 30.06 in SW 10.0 mph 19.0 mph 59 % 0.00 in 132 W/m2
15:36 65.7 °F 50.9 °F 30.06 in SW 11.0 mph 19.0 mph 59 % 0.00 in 116 W/m2
15:41 65.1 °F 50.9 °F 30.06 in SW 11.0 mph 19.0 mph 60 % 0.00 in 118 W/m2
15:46 64.9 °F 50.7 °F 30.06 in SW 13.0 mph 23.0 mph 60 % 0.00 in 144 W/m2
15:51 64.8 °F 50.5 °F 30.06 in SW 13.0 mph 24.0 mph 60 % 0.00 in 197 W/m2
15:56 64.8 °F 51.0 °F 30.06 in SW 12.0 mph 24.0 mph 61 % 0.00 in 181 W/m2
16:01 64.6 °F 50.8 °F 30.06 in WSW 12.0 mph 24.0 mph 61 % 0.00 in 171 W/m2
16:06 64.6 °F 51.3 °F 30.06 in SW 11.0 mph 20.0 mph 62 % 0.00 in 155 W/m2
16:11 64.4 °F 50.7 °F 30.06 in SW 12.0 mph 20.0 mph 61 % 0.00 in 135 W/m2
16:16 64.2 °F 51.4 °F 30.06 in SW 11.0 mph 20.0 mph 63 % 0.00 in 153 W/m2
16:21 64.0 °F 51.2 °F 30.06 in SW 12.0 mph 24.0 mph 63 % 0.00 in 142 W/m2
16:26 63.7 °F 51.7 °F 30.06 in SW 14.0 mph 24.0 mph 65 % 0.00 in 165 W/m2
16:31 63.1 °F 52.0 °F 30.06 in SW 13.0 mph 27.0 mph 67 % 0.00 in 190 W/m2
16:36 62.6 °F 52.3 °F 30.06 in SW 14.0 mph 27.0 mph 69 % 0.00 in 211 W/m2
16:41 62.4 °F 52.5 °F 30.06 in SW 12.0 mph 25.0 mph 70 % 0.00 in 229 W/m2
16:46 62.4 °F 52.5 °F 30.05 in SW 11.0 mph 23.0 mph 70 % 0.00 in 195 W/m2
16:56 62.4 °F 53.3 °F 30.05 in SW 11.0 mph 21.0 mph 72 % 0.00 in 225 W/m2
17:01 62.6 °F 53.1 °F 30.05 in SW 11.0 mph 23.0 mph 71 % 0.00 in 221 W/m2
17:06 62.4 °F 52.9 °F 30.05 in SW 14.0 mph 26.0 mph 71 % 0.00 in 227 W/m2
17:11 62.4 °F 52.9 °F 30.04 in SW 13.0 mph 26.0 mph 71 % 0.00 in 237 W/m2
17:16 62.6 °F 53.1 °F 30.04 in SSW 13.0 mph 25.0 mph 71 % 0.00 in 236 W/m2
17:21 62.4 °F 52.9 °F 30.04 in SSW 15.0 mph 26.0 mph 71 % 0.00 in 234 W/m2
17:26 62.6 °F 53.8 °F 30.04 in SW 15.0 mph 26.0 mph 73 % 0.00 in 213 W/m2
17:31 62.6 °F 53.8 °F 30.04 in SW 13.0 mph 23.0 mph 73 % 0.00 in 186 W/m2
17:37 62.4 °F 53.6 °F 30.04 in SW 13.0 mph 26.0 mph 73 % 0.00 in 162 W/m2
17:42 62.2 °F 53.8 °F 30.04 in SW 15.0 mph 26.0 mph 74 % 0.00 in 137 W/m2
17:47 62.2 °F 53.8 °F 30.04 in SW 14.0 mph 25.0 mph 74 % 0.00 in 120 W/m2
17:52 62.2 °F 54.2 °F 30.04 in SW 12.0 mph 25.0 mph 75 % 0.00 in 113 W/m2
17:57 62.2 °F 54.2 °F 30.04 in SW 11.0 mph 23.0 mph 75 % 0.00 in 104 W/m2
18:02 62.1 °F 54.0 °F 30.03 in SW 12.0 mph 26.0 mph 75 % 0.00 in 102 W/m2
18:07 62.1 °F 54.0 °F 30.03 in SW 12.0 mph 26.0 mph 75 % 0.00 in 128 W/m2
18:12 62.1 °F 54.0 °F 30.03 in SW 12.0 mph 27.0 mph 75 % 0.00 in 130 W/m2
18:17 62.1 °F 54.0 °F 30.03 in SW 15.0 mph 30.0 mph 75 % 0.00 in 274 W/m2
18:22 62.2 °F 54.2 °F 30.03 in SW 15.0 mph 30.0 mph 75 % 0.00 in 197 W/m2
18:27 62.4 °F 54.4 °F 30.03 in SW 15.0 mph 30.0 mph 75 % 0.00 in 116 W/m2
18:32 62.2 °F 54.2 °F 30.03 in SW 18.0 mph 30.0 mph 75 % 0.00 in 77 W/m2
18:37 62.1 °F 54.0 °F 30.02 in SW 18.0 mph 27.0 mph 75 % 0.00 in 77 W/m2
18:42 62.1 °F 54.4 °F 30.02 in SW 16.0 mph 27.0 mph 76 % 0.00 in 76 W/m2
18:47 61.9 °F 54.2 °F 30.02 in SW 15.0 mph 23.0 mph 76 % 0.00 in 76 W/m2
18:52 61.7 °F 54.4 °F 30.02 in SW 14.0 mph 22.0 mph 77 % 0.00 in 70 W/m2
18:57 61.5 °F 55.3 °F 30.02 in SW 13.0 mph 21.0 mph 80 % 0.00 in 90 W/m2
19:02 61.0 °F 55.1 °F 30.02 in SW 12.0 mph 22.0 mph 81 % 0.00 in 86 W/m2
19:07 60.6 °F 55.4 °F 30.02 in SW 12.0 mph 22.0 mph 83 % 0.00 in 81 W/m2
19:12 60.3 °F 55.4 °F 30.02 in SW 11.0 mph 20.0 mph 84 % 0.00 in 60 W/m2
19:17 60.1 °F 55.6 °F 30.03 in SW 10.0 mph 20.0 mph 85 % 0.00 in 58 W/m2
19:22 59.7 °F 55.2 °F 30.02 in SW 9.0 mph 15.0 mph 85 % 0.00 in 70 W/m2
19:27 59.7 °F 55.5 °F 30.03 in SW 9.0 mph 15.0 mph 86 % 0.00 in 86 W/m2
19:32 59.5 °F 55.7 °F 30.03 in SW 9.0 mph 14.0 mph 87 % 0.00 in 76 W/m2
19:37 59.4 °F 55.8 °F 30.03 in SW 10.0 mph 15.0 mph 88 % 0.00 in 40 W/m2
19:42 59.2 °F 55.9 °F 30.03 in SW 8.0 mph 15.0 mph 89 % 0.01 in 33 W/m2
19:47 59.0 °F 55.8 °F 30.03 in SW 8.0 mph 12.0 mph 89 % 0.01 in 42 W/m2
19:53 58.8 °F 55.6 °F 30.03 in SW 8.0 mph 12.0 mph 89 % 0.01 in 28 W/m2
19:58 58.6 °F 56.0 °F 30.03 in SW 9.0 mph 14.0 mph 91 % 0.02 in 18 W/m2
20:03 58.5 °F 55.8 °F 30.03 in SSW 10.0 mph 15.0 mph 91 % 0.02 in 16 W/m2
20:08 58.3 °F 56.0 °F 30.03 in SSW 9.0 mph 15.0 mph 92 % 0.02 in 14 W/m2
20:13 58.1 °F 55.8 °F 30.03 in SW 7.0 mph 11.0 mph 92 % 0.02 in 16 W/m2
20:18 57.9 °F 55.6 °F 30.03 in SW 5.0 mph 10.0 mph 92 % 0.02 in 11 W/m2
20:23 57.9 °F 55.9 °F 30.02 in SW 4.0 mph 8.0 mph 93 % 0.02 in 5 W/m2
20:28 57.9 °F 55.9 °F 30.02 in SSW 4.0 mph 8.0 mph 93 % 0.02 in 5 W/m2
20:33 57.9 °F 55.9 °F 30.02 in SSW 6.0 mph 9.0 mph 93 % 0.03 in 0 W/m2
20:38 57.9 °F 55.9 °F 30.02 in SW 7.0 mph 12.0 mph 93 % 0.03 in 0 W/m2
20:43 57.7 °F 55.7 °F 30.02 in SW 8.0 mph 12.0 mph 93 % 0.03 in 0 W/m2
20:48 57.7 °F 55.7 °F 30.02 in SW 7.0 mph 11.0 mph 93 % 0.03 in 0 W/m2
20:53 57.7 °F 56.0 °F 30.03 in SSW 6.0 mph 11.0 mph 94 % 0.04 in 0 W/m2
20:58 57.7 °F 56.0 °F 30.02 in SSW 5.0 mph 8.0 mph 94 % 0.04 in 0 W/m2
21:03 57.7 °F 56.0 °F 30.02 in SSW 4.0 mph 7.0 mph 94 % 0.04 in 0 W/m2
21:08 57.7 °F 56.0 °F 30.02 in SSW 4.0 mph 8.0 mph 94 % 0.03 in 0 W/m2
21:13 57.7 °F 56.0 °F 30.02 in SSW 5.0 mph 10.0 mph 94 % 0.03 in 0 W/m2
21:18 57.7 °F 56.0 °F 30.02 in SSW 5.0 mph 10.0 mph 94 % 0.03 in 0 W/m2
21:23 57.7 °F 56.0 °F 30.02 in SSW 5.0 mph 9.0 mph 94 % 0.04 in 0 W/m2
21:28 57.7 °F 56.0 °F 30.02 in SSW 5.0 mph 9.0 mph 94 % 0.04 in 0 W/m2
21:33 57.7 °F 56.0 °F 30.02 in SSW 5.0 mph 9.0 mph 94 % 0.04 in 0 W/m2
21:38 57.7 °F 56.3 °F 30.02 in SSW 4.0 mph 9.0 mph 95 % 0.04 in 0 W/m2
21:43 57.9 °F 56.5 °F 30.02 in SSW 4.0 mph 7.0 mph 95 % 0.03 in 0 W/m2
21:48 57.7 °F 56.0 °F 30.01 in SSW 4.0 mph 8.0 mph 94 % 0.03 in 0 W/m2
21:53 57.7 °F 56.3 °F 30.01 in SSW 4.0 mph 10.0 mph 95 % 0.03 in 0 W/m2
21:58 57.7 °F 56.3 °F 30.01 in SSW 5.0 mph 10.0 mph 95 % 0.02 in 0 W/m2
22:03 57.9 °F 56.5 °F 30.01 in SSW 6.0 mph 11.0 mph 95 % 0.02 in 0 W/m2
22:09 57.9 °F 56.5 °F 30.01 in SSW 6.0 mph 11.0 mph 95 % 0.03 in 0 W/m2
22:14 57.9 °F 56.5 °F 30.01 in SSW 6.0 mph 12.0 mph 95 % 0.04 in 0 W/m2
22:19 57.9 °F 56.5 °F 30.01 in SSW 6.0 mph 12.0 mph 95 % 0.03 in 0 W/m2
22:24 57.7 °F 56.3 °F 30.01 in SSW 7.0 mph 12.0 mph 95 % 0.03 in 0 W/m2
22:29 57.7 °F 56.3 °F 30.01 in SSW 8.0 mph 12.0 mph 95 % 0.04 in 0 W/m2
22:34 57.7 °F 56.3 °F 30.01 in SSW 7.0 mph 12.0 mph 95 % 0.03 in 0 W/m2
22:39 57.7 °F 56.3 °F 30.00 in SSW 6.0 mph 10.0 mph 95 % 0.03 in 0 W/m2
22:44 57.7 °F 56.3 °F 30.00 in SW 6.0 mph 11.0 mph 95 % 0.04 in 0 W/m2
22:49 57.7 °F 56.3 °F 30.00 in SW 5.0 mph 11.0 mph 95 % 0.04 in 0 W/m2
22:54 57.7 °F 56.3 °F 30.00 in SW 4.0 mph 8.0 mph 95 % 0.03 in 0 W/m2
22:59 57.7 °F 56.3 °F 30.00 in SW 5.0 mph 8.0 mph 95 % 0.04 in 0 W/m2
23:09 57.6 °F 56.1 °F 30.00 in SW 6.0 mph 11.0 mph 95 % 0.03 in 0 W/m2
23:14 57.6 °F 56.1 °F 30.00 in SW 7.0 mph 11.0 mph 95 % 0.02 in 0 W/m2
23:19 57.6 °F 56.1 °F 30.00 in SW 7.0 mph 11.0 mph 95 % 0.02 in 0 W/m2
23:24 57.6 °F 55.8 °F 29.99 in SW 6.0 mph 10.0 mph 94 % 0.02 in 0 W/m2
23:29 57.6 °F 55.8 °F 29.99 in WSW 6.0 mph 10.0 mph 94 % 0.02 in 0 W/m2
23:34 57.6 °F 55.8 °F 29.99 in WSW 7.0 mph 11.0 mph 94 % 0.02 in 0 W/m2
23:39 57.6 °F 55.8 °F 29.99 in SW 7.0 mph 11.0 mph 94 % 0.02 in 0 W/m2
23:44 57.6 °F 55.8 °F 29.99 in WSW 6.0 mph 11.0 mph 94 % 0.02 in 0 W/m2
23:49 57.6 °F 55.8 °F 29.99 in WSW 6.0 mph 12.0 mph 94 % 0.02 in 0 W/m2
23:54 57.6 °F 55.8 °F 29.99 in WSW 6.0 mph 12.0 mph 94 % 0.02 in 0 W/m2
23:59 57.6 °F 55.8 °F 29.99 in WSW 6.0 mph 10.0 mph 94 % 0.01 in 0 W/m2
Delerius-Weather
Compliments of Weather Underground - 2.25 mb

Data updates at regular intervals.